Time;durP1;ratioP1;P1;durP2;ratioP2;P2;SDS_P1;SDS_P2;PMS_P1;PMS_P2;Temp;Humidity;BMP_temperature;BMP_pressure;BME280_temperature;BME280_humidity;BME280_pressure;Samples;Min_cycle;Max_cycle;Signal;HPM_P1;HPM_P2
2023/11/28 00:00:20;;;;;;;7.32;5.65;;;12.70;85.70;;;;;;4999894;28;20030;-80
2023/11/28 00:02:55;;;;;;;7.97;5.88;;;12.70;85.70;;;;;;4995300;28;20029;-81
2023/11/28 00:05:27;;;;;;;7.78;5.57;;;12.70;85.70;;;;;;4997553;28;20078;-80
2023/11/28 00:07:56;;;;;;;7.05;5.30;;;12.70;85.70;;;;;;4992937;28;20046;-81
2023/11/28 00:10:22;;;;;;;6.95;5.10;;;12.70;85.70;;;;;;4997504;28;20037;-80
2023/11/28 00:12:51;;;;;;;7.78;5.55;;;12.70;85.70;;;;;;4979266;28;20065;-79
2023/11/28 00:15:20;;;;;;;7.10;5.30;;;12.70;85.70;;;;;;4995394;28;20026;-80
2023/11/28 00:18:13;;;;;;;7.03;5.22;;;12.70;85.70;;;;;;4996618;28;20034;-80
2023/11/28 00:20:43;;;;;;;7.20;5.07;;;12.70;85.70;;;;;;4997237;28;20097;-80
2023/11/28 00:23:42;;;;;;;7.28;5.30;;;12.70;85.70;;;;;;4997515;28;20041;-80
2023/11/28 00:26:32;;;;;;;7.30;5.40;;;12.70;85.70;;;;;;4995654;28;20035;-81
2023/11/28 00:28:58;;;;;;;7.22;5.00;;;12.70;85.70;;;;;;4998249;28;20034;-80
2023/11/28 00:31:24;;;;;;;6.68;4.93;;;12.70;85.70;;;;;;4996047;28;20034;-82
2023/11/28 00:33:54;;;;;;;7.55;5.10;;;12.70;85.70;;;;;;4996000;28;20027;-80
2023/11/28 00:36:27;;;;;;;7.00;5.15;;;12.70;85.70;;;;;;4995424;28;20018;-81
2023/11/28 00:38:53;;;;;;;7.28;5.28;;;12.70;85.60;;;;;;4995511;28;20034;-80
2023/11/28 00:41:19;;;;;;;7.70;5.25;;;12.70;85.70;;;;;;4993952;28;20037;-79
2023/11/28 00:43:46;;;;;;;6.55;4.95;;;12.70;85.70;;;;;;4994953;28;20506;-81
2023/11/28 00:46:14;;;;;;;6.55;4.60;;;12.70;85.70;;;;;;4995724;28;20035;-81
2023/11/28 00:48:41;;;;;;;6.60;4.78;;;12.80;85.70;;;;;;4994040;28;20022;-80
2023/11/28 00:51:07;;;;;;;6.93;5.20;;;12.70;85.60;;;;;;4999054;28;20022;-80
2023/11/28 00:53:36;;;;;;;7.07;5.18;;;12.80;85.70;;;;;;4996576;28;20109;-80
2023/11/28 00:56:05;;;;;;;6.78;4.85;;;12.80;85.70;;;;;;4995104;28;20030;-81
2023/11/28 00:58:31;;;;;;;6.13;4.50;;;12.70;85.60;;;;;;4992811;28;20073;-79
2023/11/28 01:01:00;;;;;;;6.60;4.78;;;12.80;85.60;;;;;;4994501;28;20026;-80
2023/11/28 01:03:41;;;;;;;7.28;5.07;;;12.70;85.60;;;;;;4995061;28;20023;-81
2023/11/28 01:06:16;;;;;;;6.82;4.75;;;12.70;85.60;;;;;;5000320;28;20038;-81
2023/11/28 01:08:42;;;;;;;6.47;4.75;;;12.70;85.60;;;;;;4998455;28;20031;-80
2023/11/28 01:11:57;;;;;;;6.63;4.70;;;12.80;85.70;;;;;;4998260;28;20036;-79
2023/11/28 01:14:47;;;;;;;6.13;4.22;;;12.80;85.60;;;;;;5006264;28;20062;-81
2023/11/28 01:17:17;;;;;;;6.25;4.43;;;12.70;85.50;;;;;;4999866;28;20411;-81
2023/11/28 01:19:45;;;;;;;6.60;4.55;;;12.80;85.60;;;;;;4998042;28;20027;-81
2023/11/28 01:22:12;;;;;;;6.45;4.43;;;12.80;85.60;;;;;;4998811;28;20056;-81
2023/11/28 01:25:33;;;;;;;5.95;4.30;;;12.80;85.60;;;;;;4999235;28;20057;-81
2023/11/28 01:28:10;;;;;;;;;;;12.80;85.60;;;;;;5006720;28;20431;-80
2023/11/28 01:30:46;;;;;;;6.07;4.20;;;12.80;85.60;;;;;;5002121;28;19988;-80
2023/11/28 01:33:20;;;;;;;6.40;4.50;;;12.80;85.60;;;;;;5000503;28;20018;-81
2023/11/28 01:36:03;;;;;;;6.15;4.20;;;12.80;85.60;;;;;;4999116;28;20040;-80
2023/11/28 01:38:28;;;;;;;6.07;4.30;;;12.80;85.50;;;;;;4999517;28;20544;-81
2023/11/28 01:40:54;;;;;;;6.03;4.35;;;12.80;85.50;;;;;;5001523;28;20053;-81
2023/11/28 01:43:35;;;;;;;6.40;4.38;;;12.80;85.40;;;;;;4998352;28;20022;-81
2023/11/28 01:46:07;;;;;;;5.97;4.28;;;12.80;85.40;;;;;;5001757;28;20034;-80
2023/11/28 01:48:36;;;;;;;6.40;4.22;;;12.80;85.40;;;;;;4997837;28;20033;-80
2023/11/28 01:51:10;;;;;;;6.15;4.10;;;12.80;85.50;;;;;;5016693;28;20019;-81
2023/11/28 01:53:46;;;;;;;5.70;3.90;;;12.80;85.40;;;;;;4998940;28;20464;-81
2023/11/28 01:59:10;;;;;;;5.93;4.13;;;12.80;85.40;;;;;;5000288;28;20072;-81
2023/11/28 02:02:13;;;;;;;6.20;4.22;;;12.70;85.40;;;;;;4998608;28;20030;-80
2023/11/28 02:05:06;;;;;;;5.53;3.72;;;12.80;85.50;;;;;;4991936;28;20030;-81
2023/11/28 02:07:44;;;;;;;5.95;3.92;;;12.80;85.40;;;;;;5000246;28;20042;-80
2023/11/28 02:13:23;;;;;;;5.78;3.90;;;12.80;85.40;;;;;;5011344;28;20081;-81
2023/11/28 02:15:50;;;;;;;5.30;3.78;;;12.80;85.40;;;;;;4998997;28;20404;-81
2023/11/28 02:18:18;;;;;;;5.95;3.83;;;12.80;85.40;;;;;;4999029;28;20412;-79
2023/11/28 02:27:12;;;;;;;5.28;3.67;;;12.80;85.30;;;;;;4996304;28;20041;-80
2023/11/28 02:29:49;;;;;;;5.78;3.70;;;12.80;85.30;;;;;;5004662;28;20028;-80
2023/11/28 02:32:15;;;;;;;6.15;3.92;;;12.80;85.20;;;;;;4990510;28;20121;-80
2023/11/28 02:34:40;;;;;;;5.53;3.60;;;12.80;85.20;;;;;;5000634;28;20042;-79
2023/11/28 02:37:20;;;;;;;5.53;3.40;;;12.80;85.20;;;;;;4999988;28;20506;-79
2023/11/28 02:40:03;;;;;;;5.22;3.47;;;12.90;85.30;;;;;;5002649;28;20030;-80
2023/11/28 02:42:33;;;;;;;5.30;3.58;;;12.80;85.20;;;;;;4998310;28;20065;-81
2023/11/28 02:45:02;;;;;;;5.28;3.28;;;12.80;85.10;;;;;;4996398;28;20026;-81
2023/11/28 02:48:01;;;;;;;5.28;3.47;;;12.80;85.10;;;;;;4998061;28;20018;-81
2023/11/28 02:50:32;;;;;;;5.30;3.50;;;12.80;85.10;;;;;;4998913;28;20026;-81
2023/11/28 02:53:15;;;;;;;5.57;3.25;;;12.80;85.10;;;;;;4996050;28;20243;-80
2023/11/28 02:55:49;;;;;;;5.03;3.20;;;12.80;85.20;;;;;;4998213;28;20018;-80
2023/11/28 03:02:29;;;;;;;5.50;3.40;;;12.80;85.10;;;;;;5003297;28;20076;-81
2023/11/28 03:04:54;;;;;;;4.55;3.00;;;12.80;85.10;;;;;;5004123;28;20034;-80
2023/11/28 03:07:20;;;;;;;5.25;3.30;;;12.90;85.20;;;;;;4998404;28;20050;-79
2023/11/28 03:13:31;;;;;;;4.85;3.20;;;12.80;85.10;;;;;;5003804;28;20563;-80
2023/11/28 03:16:48;;;;;;;5.40;3.40;;;12.80;85.10;;;;;;5001149;28;20420;-80
2023/11/28 03:19:20;;;;;;;5.03;3.30;;;12.80;85.00;;;;;;4996479;28;20027;-81
2023/11/28 03:22:11;;;;;;;5.78;3.20;;;12.80;85.00;;;;;;4998541;28;20018;-82
2023/11/28 03:25:06;;;;;;;4.55;3.00;;;12.80;85.10;;;;;;4987102;28;20026;-81
2023/11/28 03:27:35;;;;;;;4.45;3.00;;;12.80;85.00;;;;;;4990489;28;20101;-80
2023/11/28 03:30:08;;;;;;;4.65;3.13;;;12.80;85.10;;;;;;4976846;28;20100;-81
2023/11/28 03:33:00;;;;;;;4.65;3.13;;;12.80;85.00;;;;;;4976105;28;20026;-80
2023/11/28 03:35:36;;;;;;;4.78;2.95;;;12.80;85.00;;;;;;4977317;28;20034;-80
2023/11/28 03:38:16;;;;;;;4.78;3.10;;;12.80;85.00;;;;;;4991296;28;20030;-83
2023/11/28 03:40:43;;;;;;;4.75;3.17;;;12.80;85.10;;;;;;4963865;28;20035;-81
2023/11/28 03:43:22;;;;;;;4.65;2.95;;;13.00;85.10;;;;;;4975653;28;20038;-80
2023/11/28 03:45:49;;;;;;;5.05;3.15;;;12.80;85.00;;;;;;4980527;28;20114;-81
2023/11/28 03:48:15;;;;;;;4.88;3.03;;;12.80;84.90;;;;;;4976978;28;20027;-79
2023/11/28 03:51:18;;;;;;;4.55;2.90;;;12.80;84.90;;;;;;4974823;28;20027;-81
2023/11/28 03:54:11;;;;;;;5.38;2.97;;;12.80;85.40;;;;;;4977312;28;20030;-80
2023/11/28 03:56:43;;;;;;;4.03;2.65;;;12.80;84.90;;;;;;4982050;28;20098;-80
2023/11/28 03:59:11;;;;;;;;;;;12.80;84.90;;;;;;4976924;28;20035;-80
2023/11/28 04:01:39;;;;;;;4.47;3.03;;;12.80;84.80;;;;;;4979858;28;19995;-81
2023/11/28 04:06:56;;;;;;;4.60;2.97;;;12.80;84.80;;;;;;4977726;28;20034;-79
2023/11/28 04:09:24;;;;;;;4.93;3.00;;;12.80;84.70;;;;;;4978279;28;20022;-80
2023/11/28 04:11:51;;;;;;;4.55;2.90;;;12.80;84.80;;;;;;4974854;28;20518;-81
2023/11/28 04:14:37;;;;;;;4.82;2.70;;;12.90;84.80;;;;;;4975979;28;20035;-81
2023/11/28 04:17:03;;;;;;;4.30;2.80;;;12.90;84.80;;;;;;4990673;28;20042;-82
2023/11/28 04:19:29;;;;;;;4.22;2.85;;;12.80;84.70;;;;;;4959441;28;20058;-81
2023/11/28 04:21:58;;;;;;;4.18;2.70;;;12.80;84.70;;;;;;4958714;28;20030;-81
2023/11/28 04:24:36;;;;;;;3.78;2.50;;;12.80;84.70;;;;;;4974528;28;20402;-80
2023/11/28 04:27:14;;;;;;;4.78;2.83;;;12.80;84.60;;;;;;4976710;28;20065;-81
2023/11/28 04:29:44;;;;;;;4.28;2.60;;;12.80;84.70;;;;;;4978829;28;20041;-81
2023/11/28 04:32:16;;;;;;;4.07;2.50;;;12.80;84.70;;;;;;4974088;28;20035;-80
2023/11/28 04:34:45;;;;;;;4.47;2.63;;;12.80;84.70;;;;;;4974696;28;20035;-81
2023/11/28 04:37:14;;;;;;;5.18;2.63;;;12.80;84.70;;;;;;4974224;28;20541;-81
2023/11/28 04:39:39;;;;;;;4.18;2.60;;;12.80;84.60;;;;;;4974894;28;20030;-81
2023/11/28 04:42:07;;;;;;;4.75;3.00;;;12.80;84.60;;;;;;4973814;28;20405;-80
2023/11/28 04:44:44;;;;;;;4.53;2.80;;;12.80;84.50;;;;;;4973932;28;20803;-81
2023/11/28 04:47:16;;;;;;;4.72;2.60;;;12.80;84.60;;;;;;4975911;28;20043;-81
2023/11/28 04:49:47;;;;;;;3.60;2.33;;;12.80;84.50;;;;;;4976744;28;20023;-81
2023/11/28 04:52:12;;;;;;;5.68;2.88;;;12.80;84.50;;;;;;4990218;28;20035;-80
2023/11/28 04:54:42;;;;;;;4.57;2.78;;;12.80;84.50;;;;;;4959312;28;20031;-80
2023/11/28 04:57:14;;;;;;;4.50;2.53;;;12.80;84.40;;;;;;4975395;28;20023;-80
2023/11/28 04:59:54;;;;;;;4.72;2.67;;;12.80;84.40;;;;;;4976313;28;20019;-81
2023/11/28 05:02:28;;;;;;;4.53;2.70;;;12.80;84.40;;;;;;4958526;28;20054;-80
2023/11/28 05:04:54;;;;;;;4.82;2.92;;;12.80;84.40;;;;;;4975328;28;20023;-81
2023/11/28 05:07:19;;;;;;;4.65;2.95;;;12.80;84.40;;;;;;4974114;28;20141;-80
2023/11/28 05:09:48;;;;;;;4.00;2.50;;;12.80;84.40;;;;;;4973467;28;20539;-81
2023/11/28 05:12:27;;;;;;;4.43;2.67;;;12.80;84.40;;;;;;4975587;28;20113;-81
2023/11/28 05:15:34;;;;;;;4.95;2.72;;;12.80;84.30;;;;;;4975710;28;20027;-81
2023/11/28 05:18:00;;;;;;;4.57;2.65;;;12.80;84.30;;;;;;4976467;28;20030;-81
2023/11/28 05:20:44;;;;;;;3.92;2.33;;;12.80;84.30;;;;;;4975413;28;20019;-81
2023/11/28 05:23:13;;;;;;;4.15;2.50;;;12.80;84.30;;;;;;4977543;28;20117;-80
2023/11/28 05:25:40;;;;;;;4.13;2.55;;;12.80;84.30;;;;;;4985060;28;20038;-82
2023/11/28 05:28:14;;;;;;;4.83;2.87;;;12.80;84.30;;;;;;4994441;28;20113;-81
2023/11/28 05:30:41;;;;;;;4.00;2.47;;;12.80;84.30;;;;;;4991645;28;20077;-81
2023/11/28 05:33:07;;;;;;;4.40;2.40;;;12.80;84.30;;;;;;4992757;28;20301;-82
2023/11/28 05:35:41;;;;;;;4.57;2.80;;;12.80;84.20;;;;;;4987614;28;20027;-81
2023/11/28 05:38:11;;;;;;;4.15;2.40;;;12.80;84.30;;;;;;4974802;28;20031;-80
2023/11/28 05:40:40;;;;;;;4.20;2.60;;;12.80;84.20;;;;;;4976490;28;20030;-81
2023/11/28 05:43:07;;;;;;;4.40;2.50;;;12.80;84.30;;;;;;4973310;28;20046;-81
2023/11/28 05:45:38;;;;;;;4.88;2.40;;;12.80;84.20;;;;;;4974930;28;20062;-81
2023/11/28 05:48:03;;;;;;;4.15;2.33;;;12.80;84.20;;;;;;4974685;28;20027;-81
2023/11/28 05:50:30;;;;;;;4.13;2.35;;;12.80;84.20;;;;;;4975832;28;20049;-81
2023/11/28 05:53:02;;;;;;;4.65;2.70;;;12.80;84.20;;;;;;4979865;28;20030;-81
2023/11/28 05:55:31;;;;;;;4.18;2.50;;;12.80;84.20;;;;;;4978093;28;20026;-81
2023/11/28 05:57:57;;;;;;;4.38;2.55;;;12.80;84.20;;;;;;4980388;28;20050;-81
2023/11/28 06:00:25;;;;;;;4.40;2.80;;;12.80;84.20;;;;;;4976191;28;20023;-81
2023/11/28 06:02:55;;;;;;;4.50;2.40;;;12.80;84.20;;;;;;4977190;28;20389;-80
2023/11/28 06:05:25;;;;;;;4.70;2.50;;;12.80;84.20;;;;;;4976539;28;20055;-81
2023/11/28 06:07:52;;;;;;;3.83;2.17;;;12.80;84.20;;;;;;4976384;28;20027;-80
2023/11/28 06:10:18;;;;;;;4.13;2.40;;;12.80;84.30;;;;;;4977024;28;20023;-81
2023/11/28 06:12:43;;;;;;;4.32;2.40;;;12.80;84.20;;;;;;4989309;28;20417;-81
2023/11/28 06:17:57;;;;;;;5.28;2.30;;;12.80;84.10;;;;;;5000338;28;20049;-82
2023/11/28 06:20:22;;;;;;;4.63;2.47;;;12.90;84.10;;;;;;4992066;28;20022;-79
2023/11/28 06:22:48;;;;;;;4.57;2.58;;;12.90;84.10;;;;;;4989528;28;20299;-78
2023/11/28 06:25:14;;;;;;;4.53;2.45;;;12.80;84.10;;;;;;4983372;28;20022;-79
2023/11/28 06:27:39;;;;;;;3.72;2.30;;;12.70;84.00;;;;;;4970910;28;20591;-79
2023/11/28 06:30:06;;;;;;;4.18;2.30;;;12.90;84.20;;;;;;4983699;28;20149;-80
2023/11/28 06:32:33;;;;;;;3.95;2.30;;;12.80;84.10;;;;;;4989780;28;20089;-79
2023/11/28 06:34:58;;;;;;;3.65;2.30;;;12.80;84.10;;;;;;4990781;28;20030;-80
2023/11/28 06:37:24;;;;;;;4.22;2.40;;;12.80;84.10;;;;;;4992211;28;20030;-82
2023/11/28 06:42:32;;;;;;;4.40;2.45;;;12.80;84.00;;;;;;5483623;23;20055;-81
2023/11/28 06:47:45;;;;;;;3.72;2.35;;;12.80;84.00;;;;;;4957960;29;20109;-81
2023/11/28 06:50:24;;;;;;;4.13;2.40;;;12.80;84.00;;;;;;4944014;28;20034;-80
2023/11/28 06:52:50;;;;;;;3.85;2.20;;;12.90;84.00;;;;;;4953452;28;20027;-83
2023/11/28 06:55:15;;;;;;;3.92;2.08;;;12.80;83.90;;;;;;4961079;28;20030;-83
2023/11/28 06:57:41;;;;;;;4.18;2.40;;;12.70;84.40;;;;;;4964893;28;20027;-84
2023/11/28 07:00:52;;;;;;;4.20;2.20;;;12.80;84.00;;;;;;4958063;28;20130;-81
2023/11/28 07:03:44;;;;;;;;;;;;;;;;;;;;;
2023/11/28 07:09:07;;;;;;;3.97;2.22;;;12.80;84.10;;;;;;4963714;28;20511;-80
2023/11/28 07:14:51;;;;;;;4.03;2.10;;;12.70;84.00;;;;;;4970912;28;20074;-81
2023/11/28 07:17:37;;;;;;;4.15;2.10;;;12.80;84.00;;;;;;4985223;28;20058;-82
2023/11/28 07:20:39;;;;;;;4.38;2.10;;;12.80;84.10;;;;;;4953098;28;20512;-81
2023/11/28 07:23:04;;;;;;;4.55;2.00;;;13.90;84.70;;;;;;4987305;28;20035;-80
2023/11/28 07:33:01;;;;;;;3.45;1.98;;;12.80;84.20;;;;;;4810709;29;20760;-82
2023/11/28 07:35:28;;;;;;;3.50;1.90;;;12.80;84.10;;;;;;4798775;29;20501;-80
2023/11/28 07:38:18;;;;;;;4.45;2.20;;;12.80;84.10;;;;;;4847688;29;20041;-81
2023/11/28 07:40:58;;;;;;;5.47;1.98;;;12.80;84.10;;;;;;4859322;29;20103;-81
2023/11/28 07:43:56;;;;;;;4.20;1.90;;;12.70;84.10;;;;;;4871958;29;20044;-81
2023/11/28 07:46:35;;;;;;;3.53;2.00;;;12.70;84.00;;;;;;4951859;28;20031;-80
2023/11/28 07:49:47;;;;;;;3.88;2.00;;;12.70;83.90;;;;;;4953988;28;20027;-80
2023/11/28 07:52:22;;;;;;;4.18;1.90;;;12.90;84.00;;;;;;4969553;28;20529;-79
2023/11/28 07:58:17;;;;;;;3.75;2.10;;;13.00;83.90;;;;;;4972308;28;20477;-81
2023/11/28 08:01:06;;;;;;;3.45;1.80;;;13.00;83.80;;;;;;4951872;28;20102;-81
2023/11/28 08:03:55;;;;;;;3.90;1.95;;;13.00;83.70;;;;;;4971931;28;20030;-81
2023/11/28 08:06:25;;;;;;;3.67;2.03;;;13.00;83.70;;;;;;4954001;28;20023;-80
2023/11/28 08:08:54;;;;;;;5.07;2.20;;;14.00;84.20;;;;;;4953175;28;20026;-79
2023/11/28 08:11:20;;;;;;;2.70;1.73;;;13.10;83.70;;;;;;4967012;28;20046;-81
2023/11/28 08:13:51;;;;;;;3.42;1.80;;;13.20;83.70;;;;;;4972271;28;20076;-80
2023/11/28 08:16:27;;;;;;;3.08;1.90;;;13.10;83.50;;;;;;5005045;28;20035;-81
2023/11/28 08:19:03;;;;;;;2.90;1.77;;;13.20;83.50;;;;;;4972145;28;20045;-81
2023/11/28 08:21:32;;;;;;;3.53;2.03;;;13.20;83.50;;;;;;4957420;28;20038;-80
2023/11/28 08:24:21;;;;;;;3.33;1.80;;;13.20;83.50;;;;;;4966510;28;20102;-81
2023/11/28 08:26:53;;;;;;;3.28;1.80;;;13.20;83.50;;;;;;4953490;28;20042;-82
2023/11/28 08:29:21;;;;;;;2.90;1.83;;;13.20;83.50;;;;;;4954042;28;20052;-81
2023/11/28 08:32:15;;;;;;;3.55;1.80;;;13.40;83.60;;;;;;4953718;28;20061;-82
2023/11/28 08:34:49;;;;;;;3.65;1.90;;;13.20;83.50;;;;;;4954092;28;20049;-81
2023/11/28 08:37:25;;;;;;;3.38;1.80;;;14.00;84.00;;;;;;4953679;28;20026;-82
2023/11/28 08:40:14;;;;;;;3.67;2.03;;;13.40;83.60;;;;;;4953324;28;20476;-81
2023/11/28 08:42:42;;;;;;;2.85;1.70;;;14.50;84.30;;;;;;4970705;28;20163;-81
2023/11/28 08:45:09;;;;;;;3.13;1.73;;;13.20;83.60;;;;;;4953648;28;20027;-79
2023/11/28 08:53:33;;;;;;;3.50;1.92;;;13.20;83.70;;;;;;5030395;23;20058;-82
2023/11/28 08:55:58;;;;;;;3.13;1.73;;;13.20;83.70;;;;;;4953679;28;20048;-83
2023/11/28 08:58:24;;;;;;;2.10;1.50;;;13.30;83.80;;;;;;4953360;28;20077;-82
2023/11/28 09:00:53;;;;;;;3.72;2.10;;;13.30;83.80;;;;;;4969046;28;20043;-82
2023/11/28 09:03:20;;;;;;;2.70;1.67;;;13.20;83.80;;;;;;4970022;28;20026;-79
2023/11/28 09:05:46;;;;;;;3.13;1.83;;;13.20;83.70;;;;;;4969914;28;20031;-79
2023/11/28 09:08:12;;;;;;;3.20;1.80;;;13.20;83.70;;;;;;4969641;28;20599;-81
2023/11/28 09:10:38;;;;;;;3.70;1.70;;;13.30;83.70;;;;;;4969034;28;20035;-81
2023/11/28 09:13:04;;;;;;;2.88;1.77;;;13.40;83.80;;;;;;4968983;28;20027;-79
2023/11/28 09:15:29;;;;;;;3.03;1.70;;;13.40;83.60;;;;;;4969610;28;20030;-80
2023/11/28 09:17:55;;;;;;;3.35;1.77;;;13.40;83.60;;;;;;4969729;28;20035;-80
2023/11/28 09:20:20;;;;;;;3.05;1.80;;;13.40;83.60;;;;;;4970670;28;20632;-82
2023/11/28 09:22:47;;;;;;;2.42;1.50;;;13.40;83.10;;;;;;4971290;28;20030;-80
2023/11/28 09:25:13;;;;;;;3.05;1.65;;;13.60;82.90;;;;;;4972108;28;20042;-82
2023/11/28 09:27:39;;;;;;;4.25;1.70;;;13.60;82.80;;;;;;4974306;28;20069;-82
2023/11/28 09:30:06;;;;;;;2.85;1.63;;;13.60;82.60;;;;;;4974300;28;20063;-80
2023/11/28 09:32:31;;;;;;;2.70;1.50;;;13.60;82.50;;;;;;4975031;28;20023;-81
2023/11/28 09:34:57;;;;;;;2.28;1.40;;;13.70;82.50;;;;;;4974386;28;20085;-83
2023/11/28 09:37:22;;;;;;;2.38;1.58;;;13.80;82.30;;;;;;4972409;28;20033;-82
2023/11/28 09:39:48;;;;;;;3.55;1.70;;;13.80;82.20;;;;;;4971603;28;20042;-82
2023/11/28 09:42:15;;;;;;;2.95;1.70;;;13.90;82.10;;;;;;4972155;28;20023;-82
2023/11/28 09:44:45;;;;;;;2.35;1.40;;;13.90;82.00;;;;;;4971683;28;20384;-83
2023/11/28 09:47:11;;;;;;;2.80;1.70;;;13.90;81.90;;;;;;4971781;28;20018;-82
2023/11/28 09:49:42;;;;;;;2.70;1.60;;;13.90;81.90;;;;;;4971867;28;20054;-84
2023/11/28 09:52:13;;;;;;;2.00;1.40;;;13.90;82.00;;;;;;4971546;28;20035;-81
2023/11/28 09:54:39;;;;;;;24.77;3.25;;;13.90;82.00;;;;;;4972498;28;20440;-80
2023/11/28 09:57:10;;;;;;;50.45;5.10;;;14.00;81.70;;;;;;4972452;28;20019;-80
2023/11/28 09:59:38;;;;;;;48.63;5.13;;;14.00;81.40;;;;;;4970568;28;20085;-81
2023/11/28 10:02:05;;;;;;;38.00;5.18;;;14.00;81.20;;;;;;4971153;28;20034;-80
2023/11/28 10:04:31;;;;;;;32.08;3.70;;;14.10;81.30;;;;;;4971006;28;20957;-79
2023/11/28 10:07:04;;;;;;;38.47;4.68;;;14.10;81.20;;;;;;4970731;28;20077;-79
2023/11/28 10:09:31;;;;;;;34.45;5.05;;;14.10;81.10;;;;;;4969117;28;20042;-81
2023/11/28 10:11:59;;;;;;;25.85;4.25;;;14.10;80.90;;;;;;4966203;28;20027;-79
2023/11/28 10:14:25;;;;;;;28.80;3.88;;;14.10;80.70;;;;;;4970853;28;20061;-81
2023/11/28 10:16:51;;;;;;;25.23;4.03;;;14.10;80.90;;;;;;4970780;28;20050;-82
2023/11/28 10:19:17;;;;;;;22.48;3.35;;;14.10;80.90;;;;;;4971853;28;20081;-82
2023/11/28 10:21:44;;;;;;;24.25;4.05;;;14.20;80.90;;;;;;4970866;28;20098;-82
2023/11/28 10:24:10;;;;;;;24.75;3.33;;;14.20;80.80;;;;;;4970806;28;20031;-81
2023/11/28 10:26:39;;;;;;;24.42;3.90;;;14.20;80.80;;;;;;4970610;28;20019;-80
2023/11/28 10:29:06;;;;;;;17.55;3.00;;;14.20;80.80;;;;;;4971658;28;20031;-81
2023/11/28 10:31:36;;;;;;;17.52;3.33;;;14.20;80.90;;;;;;4970136;28;20572;-81
2023/11/28 10:34:01;;;;;;;19.48;3.28;;;14.30;80.90;;;;;;4969735;28;20046;-81
2023/11/28 10:36:27;;;;;;;17.42;3.20;;;14.30;80.80;;;;;;4969184;28;20022;-80
2023/11/28 10:38:53;;;;;;;16.67;3.13;;;14.30;80.80;;;;;;4969331;28;20034;-79
2023/11/28 10:41:19;;;;;;;22.95;3.25;;;14.40;80.70;;;;;;4968845;28;20022;-80
2023/11/28 10:43:45;;;;;;;16.02;3.05;;;14.30;80.60;;;;;;4969173;28;20053;-79
2023/11/28 10:46:14;;;;;;;17.90;2.80;;;14.40;80.70;;;;;;4970294;28;20033;-79
2023/11/28 10:48:40;;;;;;;15.25;2.92;;;14.40;80.70;;;;;;4968543;28;20027;-79
2023/11/28 10:51:09;;;;;;;13.75;2.88;;;14.30;80.70;;;;;;4968963;28;20022;-80
2023/11/28 10:53:36;;;;;;;12.02;2.58;;;14.40;80.80;;;;;;4968814;28;20121;-81
2023/11/28 10:56:02;;;;;;;17.30;3.25;;;14.30;80.80;;;;;;4969253;28;20023;-79
2023/11/28 10:58:29;;;;;;;11.20;2.35;;;14.30;80.90;;;;;;4968914;28;20754;-81
2023/11/28 11:01:02;;;;;;;16.75;3.05;;;14.20;81.00;;;;;;4968819;28;20489;-79
2023/11/28 11:03:28;;;;;;;11.40;2.50;;;14.20;81.10;;;;;;4969127;28;20031;-79
2023/11/28 11:05:54;;;;;;;15.63;2.33;;;14.20;81.20;;;;;;4969162;28;20427;-78
2023/11/28 11:08:21;;;;;;;11.40;2.40;;;14.20;81.30;;;;;;4968831;28;20473;-80
2023/11/28 11:10:47;;;;;;;10.50;2.20;;;14.10;81.30;;;;;;4968703;28;20377;-79
2023/11/28 11:13:33;;;;;;;11.13;2.40;;;14.10;81.40;;;;;;4969045;28;20022;-80
2023/11/28 11:16:15;;;;;;;8.57;2.20;;;14.10;81.50;;;;;;4968858;28;20555;-79
2023/11/28 11:18:44;;;;;;;8.88;2.90;;;14.10;81.50;;;;;;4968577;28;20057;-80
2023/11/28 11:21:25;;;;;;;12.50;2.70;;;14.20;81.50;;;;;;4968531;28;20026;-80
2023/11/28 11:23:54;;;;;;;9.68;2.42;;;14.20;81.30;;;;;;4968813;28;20031;-80
2023/11/28 11:26:37;;;;;;;9.38;2.38;;;14.30;81.10;;;;;;4968478;28;20062;-80
2023/11/28 11:29:08;;;;;;;11.95;2.40;;;14.40;80.90;;;;;;4968417;28;20077;-81
2023/11/28 11:31:34;;;;;;;5.95;1.92;;;14.40;80.80;;;;;;4968694;28;20034;-81
2023/11/28 11:34:38;;;;;;;7.70;2.35;;;14.50;80.70;;;;;;4968358;28;20114;-80
2023/11/28 11:37:08;;;;;;;7.97;2.00;;;14.50;80.50;;;;;;4968037;28;20077;-80
2023/11/28 11:39:36;;;;;;;7.72;2.13;;;14.50;80.40;;;;;;4968048;28;20385;-80
2023/11/28 11:42:02;;;;;;;8.68;2.28;;;14.50;80.30;;;;;;4967932;28;20019;-80
2023/11/28 11:44:28;;;;;;;11.25;2.35;;;14.60;80.30;;;;;;4968192;28;20038;-81
2023/11/28 11:46:53;;;;;;;6.22;2.03;;;14.60;80.30;;;;;;4968244;28;20027;-81
2023/11/28 11:49:19;;;;;;;7.78;1.92;;;14.60;80.30;;;;;;4968615;28;20029;-80
2023/11/28 11:51:45;;;;;;;8.65;2.00;;;14.60;80.30;;;;;;4967918;28;20496;-79
2023/11/28 11:54:10;;;;;;;9.18;1.80;;;14.60;80.30;;;;;;4968054;28;20467;-81
2023/11/28 11:56:36;;;;;;;8.07;2.08;;;14.50;80.40;;;;;;4968147;28;20023;-80
2023/11/28 11:59:05;;;;;;;6.28;1.80;;;14.50;80.50;;;;;;4967738;28;20540;-80
2023/11/28 12:01:31;;;;;;;6.15;1.80;;;14.40;80.60;;;;;;4967994;28;20124;-79
2023/11/28 12:04:01;;;;;;;7.75;2.10;;;14.50;80.70;;;;;;4968012;28;20050;-81
2023/11/28 12:06:26;;;;;;;5.13;1.85;;;14.50;80.70;;;;;;4969764;28;20473;-80
2023/11/28 12:08:52;;;;;;;6.55;2.05;;;14.50;80.70;;;;;;4967751;28;20046;-79
2023/11/28 12:11:17;;;;;;;4.65;1.65;;;14.50;80.80;;;;;;4968147;28;20562;-80
2023/11/28 12:13:43;;;;;;;5.82;1.85;;;14.50;80.70;;;;;;4969162;28;20031;-79
2023/11/28 12:16:12;;;;;;;5.50;1.75;;;14.50;80.60;;;;;;4969337;28;20062;-80
2023/11/28 12:18:39;;;;;;;6.45;1.60;;;14.60;80.60;;;;;;4967179;28;20023;-79
2023/11/28 12:21:04;;;;;;;6.78;2.05;;;14.60;80.50;;;;;;4969042;28;20149;-79
2023/11/28 12:23:31;;;;;;;7.38;1.73;;;14.60;80.50;;;;;;4967689;28;20121;-80
2023/11/28 12:25:57;;;;;;;5.03;1.42;;;14.60;80.40;;;;;;4966787;28;20567;-78
2023/11/28 12:28:27;;;;;;;6.05;1.70;;;14.60;80.30;;;;;;4966164;28;20122;-79
2023/11/28 12:30:53;;;;;;;4.60;1.60;;;14.60;80.30;;;;;;4965902;28;20035;-79
2023/11/28 12:33:19;;;;;;;6.63;1.80;;;14.60;80.10;;;;;;4966258;28;20073;-77
2023/11/28 12:35:47;;;;;;;17.30;2.47;;;14.60;79.70;;;;;;4966334;28;20749;-78
2023/11/28 12:38:12;;;;;;;16.55;2.90;;;14.30;67.30;;;;;;4966173;28;20045;-78
2023/11/28 12:40:38;;;;;;;9.60;2.17;;;14.10;66.60;;;;;;4966100;28;20473;-77
2023/11/28 12:43:04;;;;;;;14.05;2.78;;;13.90;65.50;;;;;;4965991;28;20034;-78
2023/11/28 12:45:32;;;;;;;11.40;2.22;;;14.00;67.70;;;;;;4969155;28;20023;-80
2023/11/28 12:47:58;;;;;;;24.08;2.55;;;14.00;68.30;;;;;;4969306;28;20039;-80
2023/11/28 12:50:26;;;;;;;10.23;2.10;;;14.10;68.80;;;;;;4967515;28;20110;-81
2023/11/28 12:52:51;;;;;;;6.03;1.80;;;14.20;69.60;;;;;;4967782;28;20035;-82
2023/11/28 12:55:17;;;;;;;10.38;2.03;;;14.20;70.00;;;;;;4968047;28;20805;-81
2023/11/28 12:57:43;;;;;;;9.13;2.00;;;14.20;70.70;;;;;;4968120;28;20038;-83
2023/11/28 13:00:09;;;;;;;9.10;2.30;;;14.20;71.50;;;;;;4971472;28;20018;-82
2023/11/28 13:02:35;;;;;;;5.97;1.70;;;14.30;72.30;;;;;;4974194;28;20113;-80
2023/11/28 13:05:00;;;;;;;7.88;2.10;;;14.20;72.80;;;;;;4974667;28;20118;-81
2023/11/28 13:07:26;;;;;;;7.20;2.00;;;14.30;73.50;;;;;;4974535;28;21076;-80
2023/11/28 13:09:52;;;;;;;4.40;1.75;;;14.30;73.90;;;;;;4974230;28;20037;-81
2023/11/28 13:12:20;;;;;;;8.10;1.85;;;14.30;74.40;;;;;;4974318;28;20112;-80
2023/11/28 13:14:45;;;;;;;8.82;1.98;;;14.30;74.80;;;;;;4974664;28;20043;-81
2023/11/28 13:17:11;;;;;;;6.40;1.80;;;14.30;75.10;;;;;;4974334;28;20625;-80
2023/11/28 13:19:37;;;;;;;5.03;1.83;;;14.30;75.40;;;;;;4974462;28;20026;-83
2023/11/28 13:22:03;;;;;;;5.15;1.80;;;14.30;75.60;;;;;;4974547;28;20026;-83
2023/11/28 13:24:29;;;;;;;4.85;1.80;;;14.20;75.90;;;;;;4974578;28;20031;-83
2023/11/28 13:26:54;;;;;;;5.43;1.65;;;14.20;76.10;;;;;;4974850;28;20029;-81
2023/11/28 13:29:22;;;;;;;4.78;1.83;;;14.20;76.30;;;;;;4974523;28;20138;-82
2023/11/28 13:31:48;;;;;;;4.93;1.80;;;14.20;76.40;;;;;;4974530;28;20756;-82
2023/11/28 13:34:14;;;;;;;4.82;1.63;;;14.30;76.70;;;;;;4974761;28;20035;-82
2023/11/28 13:36:39;;;;;;;6.07;2.30;;;14.20;76.80;;;;;;4974772;28;20025;-82
2023/11/28 13:39:05;;;;;;;4.63;1.60;;;14.20;76.90;;;;;;4974198;28;20105;-81
2023/11/28 13:41:31;;;;;;;5.05;1.75;;;14.20;77.10;;;;;;4974513;28;20142;-82
2023/11/28 13:43:56;;;;;;;4.55;1.70;;;14.20;77.20;;;;;;4974290;28;20030;-81
2023/11/28 13:46:23;;;;;;;3.20;1.67;;;14.20;77.30;;;;;;4977470;28;20097;-80
2023/11/28 13:48:49;;;;;;;7.07;1.80;;;14.20;77.40;;;;;;4977867;28;20349;-80
2023/11/28 13:51:15;;;;;;;5.75;1.77;;;14.20;77.50;;;;;;4978478;28;20022;-81
2023/11/28 13:53:40;;;;;;;4.35;1.60;;;14.20;77.60;;;;;;4978442;28;20464;-81
2023/11/28 13:56:06;;;;;;;4.07;2.00;;;14.10;77.70;;;;;;4979911;28;20011;-81
2023/11/28 13:58:32;;;;;;;3.63;1.60;;;14.20;78.20;;;;;;4978316;28;20014;-81
2023/11/28 14:00:59;;;;;;;3.63;1.60;;;14.10;77.70;;;;;;4978608;28;20405;-81
2023/11/28 14:03:24;;;;;;;4.78;1.58;;;14.10;77.70;;;;;;4978756;28;20675;-81